createdAt,value
2022-08-22T00:00:59.882Z,101502.97
2022-08-22T00:02:59.228Z,101525.41
2022-08-22T00:06:41.710Z,101509.13
2022-08-22T00:12:12.588Z,101500.19
2022-08-22T00:18:07.486Z,101505.78
2022-08-22T00:23:52.780Z,101505.78
2022-08-22T00:29:19.515Z,101512.47
2022-08-22T00:35:07.928Z,101503.25
2022-08-22T00:40:55.921Z,101507.97
2022-08-22T00:46:29.051Z,101506.28
2022-08-22T00:52:00.479Z,101509.09
2022-08-22T00:57:48.478Z,101504.59
2022-08-22T01:03:42.705Z,101509.38
2022-08-22T01:09:33.401Z,101502.94
2022-08-22T01:15:00.576Z,101496.50
2022-08-22T01:20:40.413Z,101504.06
2022-08-22T01:26:55.960Z,101503.47
2022-08-22T01:33:12.987Z,101502.63
2022-08-22T01:38:52.713Z,101505.16
2022-08-22T01:44:44.994Z,101505.16
2022-08-22T01:50:19.129Z,101504.31
2022-08-22T01:55:54.227Z,101497.88
2022-08-22T02:01:36.347Z,101491.44
2022-08-22T02:07:31.947Z,101491.44
2022-08-22T02:13:12.562Z,101487.81
2022-08-22T02:19:15.619Z,101487.25
2022-08-22T02:25:06.979Z,101482.53
2022-08-22T02:30:47.159Z,101474.13
2022-08-22T02:36:42.164Z,101467.69
2022-08-22T02:42:28.837Z,101470.75
2022-08-22T02:48:17.931Z,101468.81
2022-08-22T02:53:54.573Z,101466.28
2022-08-22T02:59:37.137Z,101468.22
2022-08-22T03:05:14.739Z,101463.75
2022-08-22T03:10:43.535Z,101461.81
2022-08-22T03:16:16.576Z,101452.56
2022-08-22T03:21:59.905Z,101455.38
2022-08-22T03:27:33.745Z,101449.22
2022-08-22T03:33:01.982Z,101453.97
2022-08-22T03:38:32.879Z,101458.72
2022-08-22T03:44:00.504Z,101452.28
2022-08-22T03:49:47.002Z,101458.44
2022-08-22T03:55:34.930Z,101451.44
2022-08-22T04:01:28.695Z,101451.44
2022-08-22T04:07:28.575Z,101448.38
2022-08-22T04:13:29.336Z,101450.88
2022-08-22T04:19:09.248Z,101448.66
2022-08-22T04:24:38.635Z,101448.91
2022-08-22T04:30:06.663Z,101449.75
2022-08-22T04:35:46.401Z,101451.44
2022-08-22T04:41:14.029Z,101455.34
2022-08-22T04:46:45.788Z,101453.66
2022-08-22T04:52:07.419Z,101458.38
2022-08-22T04:57:51.002Z,101457.28
2022-08-22T05:03:17.142Z,101459.25
2022-08-22T05:08:40.719Z,101463.13
2022-08-22T05:14:16.506Z,101463.13
2022-08-22T05:19:40.794Z,101463.66
2022-08-22T05:25:09.708Z,101469.81
2022-08-22T05:30:35.685Z,101467.31
2022-08-22T05:36:20.530Z,101476.50
2022-08-22T05:41:42.728Z,101474.81
2022-08-22T05:47:31.907Z,101477.38
2022-08-22T05:53:18.374Z,101490.75
2022-08-22T05:58:40.333Z,101480.69
2022-08-22T06:04:08.020Z,101475.69
2022-08-22T06:10:11.769Z,101482.38
2022-08-22T06:15:52.051Z,101480.41
2022-08-22T06:21:21.289Z,101483.47
2022-08-22T06:26:48.799Z,101492.44
2022-08-22T06:32:31.556Z,101493.25
2022-08-22T06:38:03.769Z,101497.75
2022-08-22T06:43:25.786Z,101492.16
2022-08-22T06:48:49.289Z,101502.22
2022-08-22T06:54:19.708Z,101509.50
2022-08-22T06:59:44.072Z,101504.19
2022-08-22T07:05:10.111Z,101512.56
2022-08-22T07:10:31.999Z,101503.91
2022-08-22T07:15:57.661Z,101502.53
2022-08-22T07:21:46.406Z,101486.94
2022-08-22T07:27:12.356Z,101493.94
2022-08-22T07:32:50.987Z,101491.13
2022-08-22T07:38:18.477Z,101496.72
2022-08-22T07:43:57.344Z,101488.34
2022-08-22T07:49:27.031Z,101484.72
2022-08-22T07:54:55.338Z,101491.13
2022-08-22T08:00:20.489Z,101488.94
2022-08-22T08:05:45.282Z,101477.75
2022-08-22T08:11:10.025Z,101482.53
2022-08-22T08:16:43.000Z,101481.66
2022-08-22T08:22:05.844Z,101488.09
2022-08-22T08:27:50.451Z,101488.94
2022-08-22T08:33:25.528Z,101489.22
2022-08-22T08:39:16.507Z,101488.09
2022-08-22T08:45:19.725Z,101488.94
2022-08-22T08:51:07.934Z,101479.44
2022-08-22T08:56:55.983Z,101469.97
2022-08-22T09:02:36.795Z,101467.75
2022-08-22T09:08:34.209Z,101474.47
2022-08-22T09:14:27.002Z,101467.53
2022-08-22T09:20:00.612Z,101455.59
2022-08-22T09:25:38.740Z,101450.28
2022-08-22T09:31:02.726Z,101461.19
2022-08-22T09:36:50.778Z,101456.47
2022-08-22T09:42:30.751Z,101449.78
2022-08-22T09:48:07.228Z,101458.22
2022-08-22T09:53:54.817Z,101443.47
2022-08-22T09:59:50.731Z,101451.28
2022-08-22T10:05:35.133Z,101445.47
2022-08-22T10:11:13.751Z,101442.97
2022-08-22T10:16:47.533Z,101442.44
2022-08-22T10:22:15.900Z,101435.72
2022-08-22T10:27:40.407Z,101430.69
2022-08-22T10:33:20.047Z,101425.66
2022-08-22T10:38:49.337Z,101416.16
2022-08-22T10:44:38.023Z,101413.94
2022-08-22T10:50:31.057Z,101412.56
2022-08-22T10:56:03.855Z,101410.88
2022-08-22T11:01:37.530Z,101404.75
2022-08-22T11:07:35.533Z,101406.72
2022-08-22T11:13:16.049Z,101401.69
2022-08-22T11:19:02.448Z,101409.81
2022-08-22T11:24:35.385Z,101405.31
2022-08-22T11:30:02.149Z,101401.69
2022-08-22T11:35:31.960Z,101407.28
2022-08-22T11:40:59.465Z,101400.88
2022-08-22T11:46:27.397Z,101393.31
2022-08-22T11:52:10.555Z,101376.81
2022-08-22T11:57:35.336Z,101383.25
2022-08-22T12:03:17.497Z,101377.66
2022-08-22T12:08:46.340Z,101372.91
2022-08-22T12:14:56.277Z,101372.06
2022-08-22T12:20:28.234Z,101368.69
2022-08-22T12:25:49.991Z,101371.50
2022-08-22T12:31:34.126Z,101368.69
2022-08-22T12:37:03.759Z,101362.81
2022-08-22T12:42:57.381Z,101352.22
2022-08-22T12:48:34.012Z,101345.50
2022-08-22T12:54:39.991Z,101334.31
2022-08-22T13:00:23.054Z,101326.50
2022-08-22T13:05:52.114Z,101336.84
2022-08-22T13:11:23.593Z,101333.22
2022-08-22T13:16:51.209Z,101326.50
2022-08-22T13:22:19.696Z,101328.72
2022-08-22T13:27:51.085Z,101325.09
2022-08-22T13:33:22.274Z,101316.69
2022-08-22T13:38:57.875Z,101316.69
2022-08-22T13:44:30.540Z,101315.59
2022-08-22T13:50:05.369Z,101310.28
2022-08-22T13:55:49.091Z,101302.72
2022-08-22T14:01:40.663Z,101304.69
2022-08-22T14:07:02.947Z,101310.00
2022-08-22T14:12:33.542Z,101307.19
2022-08-22T14:18:01.774Z,101298.53
2022-08-22T14:23:29.469Z,101304.41
2022-08-22T14:28:56.739Z,101296.28
2022-08-22T14:34:18.955Z,101297.97
2022-08-22T14:40:03.836Z,101286.25
2022-08-22T14:45:33.125Z,101287.06
2022-08-22T14:50:59.913Z,101277.03
2022-08-22T14:56:25.114Z,101269.75
2022-08-22T15:01:57.208Z,101251.31
2022-08-22T15:07:29.765Z,101244.59
2022-08-22T15:12:58.800Z,101246.81
2022-08-22T15:18:23.381Z,101239.81
2022-08-22T15:23:47.015Z,101238.41
2022-08-22T15:29:17.841Z,101232.00
2022-08-22T15:34:46.055Z,101236.72
2022-08-22T15:40:12.054Z,101243.75
2022-08-22T15:45:37.519Z,101234.78
2022-08-22T15:51:13.540Z,101230.63
2022-08-22T15:56:46.246Z,101226.97
2022-08-22T16:02:20.635Z,101225.84
2022-08-22T16:07:51.227Z,101221.38
2022-08-22T16:13:29.538Z,101211.34
2022-08-22T16:18:51.357Z,101206.84
2022-08-22T16:24:12.971Z,101206.00
2022-08-22T16:29:41.473Z,101194.81
2022-08-22T16:35:04.061Z,101195.69
2022-08-22T16:40:26.606Z,101187.28
2022-08-22T16:45:51.252Z,101193.16
2022-08-22T16:51:18.861Z,101178.63
2022-08-22T16:57:09.221Z,101180.31
2022-08-22T17:02:52.901Z,101173.03
2022-08-22T17:08:14.518Z,101184.22
2022-08-22T17:13:36.126Z,101184.78
2022-08-22T17:19:03.658Z,101194.53
2022-08-22T17:24:48.810Z,101188.69
2022-08-22T17:30:21.284Z,101193.44
2022-08-22T17:35:55.749Z,101202.09
2022-08-22T17:41:32.216Z,101202.94
2022-08-22T17:47:17.013Z,101200.97
2022-08-22T17:52:48.527Z,101209.66
2022-08-22T17:58:36.066Z,101214.97
2022-08-22T18:04:01.610Z,101216.34
2022-08-22T18:09:36.958Z,101206.84
2022-08-22T18:15:46.307Z,101214.94
2022-08-22T18:21:25.076Z,101221.38
2022-08-22T18:27:02.423Z,101215.22
2022-08-22T18:32:41.951Z,101226.69
2022-08-22T18:38:19.409Z,101238.41
2022-08-22T18:43:45.227Z,101231.13
2022-08-22T18:49:19.797Z,101238.94
2022-08-22T18:54:44.562Z,101235.03
2022-08-22T19:00:18.929Z,101237.56
2022-08-22T19:06:25.634Z,101240.06
2022-08-22T19:12:19.158Z,101260.22
2022-08-22T19:17:59.350Z,101267.47
2022-08-22T19:23:33.171Z,101271.09
2022-08-22T19:29:18.847Z,101273.06
2022-08-22T19:34:47.871Z,101268.03
2022-08-22T19:40:11.831Z,101273.91
2022-08-22T19:45:39.908Z,101265.78
2022-08-22T19:51:21.720Z,101266.06
2022-08-22T19:57:07.050Z,101268.28
2022-08-22T20:02:49.987Z,101275.25
2022-08-22T20:08:50.368Z,101275.25
2022-08-22T20:14:31.133Z,101268.00
2022-08-22T20:25:50.794Z,101279.16
2022-08-22T20:31:21.747Z,101266.31
2022-08-22T20:36:45.797Z,101268.53
2022-08-22T20:42:14.085Z,101271.31
2022-08-22T20:47:41.369Z,101278.03
2022-08-22T20:53:22.173Z,101275.22
2022-08-22T20:58:48.965Z,101271.59
2022-08-22T21:04:11.609Z,101276.34
2022-08-22T21:09:52.138Z,101270.75
2022-08-22T21:15:13.808Z,101271.88
2022-08-22T21:20:37.521Z,101276.34
2022-08-22T21:26:08.836Z,101281.09
2022-08-22T21:31:35.497Z,101283.03
2022-08-22T21:37:01.818Z,101283.31
2022-08-22T21:42:34.492Z,101281.34
2022-08-22T21:47:56.835Z,101287.22
2022-08-22T21:53:28.470Z,101288.06
2022-08-22T21:58:50.171Z,101296.72
2022-08-22T22:04:15.033Z,101290.31
2022-08-22T22:09:36.939Z,101293.94
2022-08-22T22:14:58.791Z,101283.03
2022-08-22T22:20:22.815Z,101279.13
2022-08-22T22:25:45.890Z,101284.97
2022-08-22T22:31:07.916Z,101291.41
2022-08-22T22:36:29.677Z,101292.53
2022-08-22T22:41:51.500Z,101300.91
2022-08-22T22:47:13.670Z,101293.63
2022-08-22T22:52:40.676Z,101296.72
2022-08-22T22:58:03.380Z,101293.91
2022-08-22T23:03:26.915Z,101292.25
2022-08-22T23:08:48.945Z,101312.63
2022-08-22T23:14:10.750Z,101313.72
2022-08-22T23:19:32.519Z,101302.56
2022-08-22T23:24:54.235Z,101300.63
2022-08-22T23:30:15.947Z,101295.28
2022-08-22T23:35:37.735Z,101290.56
2022-08-22T23:41:09.557Z,101299.75
2022-08-22T23:46:31.600Z,101304.78
2022-08-22T23:51:55.930Z,101307.56
2022-08-22T23:57:17.804Z,101308.69
